Time;durP1;ratioP1;P1;durP2;ratioP2;P2;SDS_P1;SDS_P2;PMS_P1;PMS_P2;Temp;Humidity;BMP_temperature;BMP_pressure;BME280_temperature;BME280_humidity;BME280_pressure;Samples;Min_cycle;Max_cycle;Signal;HPM_P1;HPM_P2
2022/04/21 00:00:00;;;;;;;12.03;8.73;;;3.40;99.90;;;;;;5092432;28;20028;-80
2022/04/21 00:02:26;;;;;;;14.13;9.83;;;3.40;99.90;;;;;;5091872;28;20036;-80
2022/04/21 00:04:51;;;;;;;13.23;9.37;;;3.30;99.90;;;;;;5091807;28;20446;-80
2022/04/21 00:07:17;;;;;;;13.23;9.47;;;3.30;99.90;;;;;;5091652;28;20493;-80
2022/04/21 00:09:42;;;;;;;17.70;10.63;;;3.20;99.90;;;;;;5073404;28;20100;-80
2022/04/21 00:12:08;;;;;;;22.13;11.87;;;3.20;99.90;;;;;;5108612;28;20032;-82
2022/04/21 00:14:34;;;;;;;16.83;10.70;;;3.20;99.90;;;;;;5111493;28;20023;-81
2022/04/21 00:17:00;;;;;;;15.10;9.47;;;3.10;99.90;;;;;;5109323;28;20487;-81
2022/04/21 00:19:25;;;;;;;18.67;10.17;;;3.10;99.90;;;;;;5091618;28;20103;-81
2022/04/21 00:24:35;;;;;;;16.30;10.00;;;3.10;99.90;;;;;;5091529;28;20560;-81
2022/04/21 00:27:00;;;;;;;14.63;10.13;;;3.10;99.90;;;;;;5091555;28;20076;-81
2022/04/21 00:29:26;;;;;;;16.50;9.27;;;3.10;99.90;;;;;;5090858;28;20054;-81
2022/04/21 00:31:51;;;;;;;16.67;9.67;;;3.10;99.90;;;;;;5091102;28;20024;-81
2022/04/21 00:34:18;;;;;;;14.50;9.63;;;3.10;99.90;;;;;;5091363;28;20028;-81
2022/04/21 00:36:45;;;;;;;12.60;9.50;;;3.10;99.90;;;;;;5091371;28;20050;-81
2022/04/21 00:39:11;;;;;;;13.87;9.47;;;3.10;99.90;;;;;;5091287;28;20039;-81
2022/04/21 00:41:36;;;;;;;14.90;10.07;;;3.10;99.90;;;;;;5097245;28;20027;-80
2022/04/21 00:44:02;;;;;;;17.40;10.07;;;3.10;99.90;;;;;;5111521;28;20408;-81
2022/04/21 00:46:29;;;;;;;13.53;9.80;;;3.10;99.90;;;;;;5111036;28;20487;-81
2022/04/21 00:48:55;;;;;;;15.50;9.70;;;3.10;99.90;;;;;;5090423;28;20446;-81
2022/04/21 00:51:23;;;;;;;15.77;9.80;;;3.10;99.90;;;;;;5090749;28;20076;-81
2022/04/21 00:53:49;;;;;;;19.00;9.90;;;3.10;99.90;;;;;;5106428;28;20020;-81
2022/04/21 00:56:15;;;;;;;12.60;9.50;;;3.10;99.90;;;;;;5091252;28;20074;-81
2022/04/21 00:58:43;;;;;;;15.40;9.77;;;3.10;99.90;;;;;;5090810;28;20055;-81
2022/04/21 01:02:46;;;;;;;15.37;9.00;;;3.10;99.90;;;;;;5090732;28;20500;-81
2022/04/21 01:03:55;;;;;;;12.20;8.60;;;3.10;99.90;;;;;;5091157;28;20048;-81
2022/04/21 01:06:22;;;;;;;18.63;9.40;;;3.10;99.90;;;;;;5090797;28;20381;-81
2022/04/21 01:08:48;;;;;;;16.20;9.03;;;3.10;99.90;;;;;;5092339;28;20047;-81
2022/04/21 01:11:16;;;;;;;12.73;9.10;;;3.10;99.90;;;;;;5070909;28;20037;-81
2022/04/21 01:13:46;;;;;;;14.23;9.13;;;3.10;99.90;;;;;;5075803;28;20020;-80
2022/04/21 01:16:11;;;;;;;15.07;8.80;;;3.10;99.90;;;;;;5089745;28;20099;-80
2022/04/21 01:18:37;;;;;;;15.40;9.60;;;3.10;99.90;;;;;;5090321;28;20115;-80
2022/04/21 01:21:02;;;;;;;17.30;8.80;;;3.10;99.90;;;;;;5090746;28;20801;-80
2022/04/21 01:23:28;;;;;;;17.10;9.27;;;3.00;99.90;;;;;;5098527;28;20110;-80
2022/04/21 01:25:54;;;;;;;13.17;9.10;;;3.00;99.90;;;;;;5110808;28;20035;-80
2022/04/21 01:28:21;;;;;;;14.83;9.33;;;2.90;99.90;;;;;;5104966;28;20047;-80
2022/04/21 01:30:46;;;;;;;15.90;8.53;;;2.90;99.90;;;;;;5072372;28;20805;-80
2022/04/21 01:33:12;;;;;;;13.70;8.73;;;2.90;99.90;;;;;;5093062;28;20021;-81
2022/04/21 01:35:38;;;;;;;17.87;9.43;;;2.90;99.90;;;;;;5103045;28;20099;-81
2022/04/21 01:43:32;;;;;;;12.63;8.30;;;2.70;99.90;;;;;;5114526;28;20030;-81
2022/04/21 01:45:58;;;;;;;15.63;9.10;;;2.60;99.90;;;;;;5114417;28;20028;-81
2022/04/21 01:48:24;;;;;;;15.00;9.63;;;2.60;99.90;;;;;;5085565;28;20468;-81
2022/04/21 01:50:49;;;;;;;12.50;9.37;;;2.60;99.90;;;;;;5114333;28;20411;-81
2022/04/21 01:53:15;;;;;;;14.33;9.27;;;2.60;99.90;;;;;;5077333;28;20032;-81
2022/04/21 01:55:40;;;;;;;14.10;8.60;;;2.60;99.90;;;;;;5093963;28;20029;-81
2022/04/21 01:58:06;;;;;;;14.67;9.17;;;2.60;99.90;;;;;;5096425;28;20038;-81
2022/04/21 02:00:32;;;;;;;14.80;9.73;;;2.60;99.90;;;;;;5093993;28;20036;-81
2022/04/21 02:02:57;;;;;;;13.50;8.93;;;2.50;99.90;;;;;;5094009;28;20059;-81
2022/04/21 02:05:23;;;;;;;14.07;9.13;;;2.50;99.90;;;;;;5093984;28;20068;-81
2022/04/21 02:07:48;;;;;;;15.70;9.47;;;2.50;99.90;;;;;;5094003;28;20027;-81
2022/04/21 02:10:16;;;;;;;12.60;8.93;;;2.40;99.90;;;;;;5093496;28;20107;-81
2022/04/21 02:12:43;;;;;;;13.57;9.30;;;2.40;99.90;;;;;;5113661;28;20024;-81
2022/04/21 02:15:09;;;;;;;14.23;9.10;;;2.40;99.90;;;;;;5113671;28;20043;-81
2022/04/21 02:17:35;;;;;;;12.23;8.57;;;2.30;99.90;;;;;;5095821;28;20046;-81
2022/04/21 02:20:03;;;;;;;12.27;8.63;;;2.40;99.90;;;;;;5098797;28;20027;-81
2022/04/21 02:22:28;;;;;;;14.93;8.37;;;2.30;99.90;;;;;;5075351;28;20035;-81
2022/04/21 02:24:54;;;;;;;15.63;8.57;;;2.40;99.90;;;;;;5093988;28;20024;-81
2022/04/21 02:27:20;;;;;;;14.30;8.20;;;2.60;99.90;;;;;;5074990;28;20492;-81
2022/04/21 02:29:45;;;;;;;14.13;8.77;;;2.50;99.90;;;;;;5087475;28;20071;-81
2022/04/21 02:32:11;;;;;;;17.27;8.87;;;2.50;99.90;;;;;;5113698;28;20051;-81
2022/04/21 02:34:36;;;;;;;16.70;9.83;;;2.30;99.90;;;;;;5113098;28;20016;-81
2022/04/21 02:37:02;;;;;;;16.10;10.37;;;2.20;99.90;;;;;;5093307;28;20028;-81
2022/04/21 02:39:27;;;;;;;16.53;9.73;;;2.10;99.90;;;;;;5103007;28;20491;-81
2022/04/21 02:41:53;;;;;;;17.00;10.03;;;2.00;99.90;;;;;;5094956;28;20083;-81
2022/04/21 02:44:19;;;;;;;19.63;9.27;;;2.00;99.90;;;;;;5112536;28;20027;-81
2022/04/21 02:46:44;;;;;;;17.23;8.97;;;2.00;99.90;;;;;;5092208;28;20119;-81
2022/04/21 02:49:11;;;;;;;14.03;9.43;;;2.00;99.90;;;;;;5093029;28;20393;-81
2022/04/21 02:51:36;;;;;;;14.97;9.93;;;2.00;99.90;;;;;;5074384;28;20122;-81
2022/04/21 02:59:31;;;;;;;13.83;9.20;;;1.90;99.90;;;;;;5093257;28;20381;-81
2022/04/21 03:01:57;;;;;;;11.90;8.97;;;1.90;99.90;;;;;;5092616;28;20024;-81
2022/04/21 03:04:23;;;;;;;16.70;9.10;;;1.80;99.90;;;;;;5074549;28;20038;-81
2022/04/21 03:06:48;;;;;;;14.00;9.03;;;1.80;99.90;;;;;;5093008;28;20024;-81
2022/04/21 03:09:14;;;;;;;13.60;9.00;;;1.80;99.90;;;;;;5108881;28;20035;-81
2022/04/21 03:11:40;;;;;;;15.40;9.27;;;1.80;99.90;;;;;;5112730;28;20460;-81
2022/04/21 03:14:05;;;;;;;13.47;8.10;;;1.80;99.90;;;;;;5112826;28;20028;-81
2022/04/21 03:16:31;;;;;;;15.60;9.63;;;1.80;99.90;;;;;;5112955;28;20023;-81
2022/04/21 03:18:56;;;;;;;13.93;9.17;;;1.80;99.90;;;;;;5100575;28;20024;-81
2022/04/21 03:24:21;;;;;;;17.33;8.93;;;1.80;99.90;;;;;;5092967;28;20450;-81
2022/04/21 03:26:49;;;;;;;15.87;9.87;;;1.80;99.90;;;;;;5092351;28;20039;-81
2022/04/21 03:29:14;;;;;;;13.27;9.37;;;1.80;99.90;;;;;;5106470;28;20055;-81
2022/04/21 03:31:43;;;;;;;14.17;9.07;;;1.80;99.90;;;;;;5111603;28;20076;-81
2022/04/21 03:34:13;;;;;;;17.10;8.97;;;1.80;99.90;;;;;;5093312;28;20483;-81
2022/04/21 03:36:47;;;;;;;16.93;9.47;;;1.80;99.90;;;;;;5109490;28;20086;-81
2022/04/21 03:39:13;;;;;;;12.90;8.80;;;1.80;99.90;;;;;;5111461;28;20028;-81
2022/04/21 03:41:38;;;;;;;19.57;9.43;;;1.80;99.90;;;;;;5111517;28;20383;-81
2022/04/21 03:44:05;;;;;;;16.50;10.00;;;1.80;99.90;;;;;;5111633;28;20096;-81
2022/04/21 03:46:31;;;;;;;14.43;9.20;;;1.80;99.90;;;;;;5106356;28;20024;-80
2022/04/21 03:48:56;;;;;;;13.47;9.10;;;1.90;99.90;;;;;;5090999;28;20479;-81
2022/04/21 03:51:24;;;;;;;14.00;9.07;;;1.90;99.90;;;;;;5072906;28;20536;-81
2022/04/21 03:53:49;;;;;;;14.80;9.80;;;1.90;99.90;;;;;;5073547;28;20020;-81
2022/04/21 03:56:15;;;;;;;14.53;8.60;;;1.90;99.90;;;;;;5073228;28;20012;-81
2022/04/21 03:58:41;;;;;;;14.00;9.13;;;1.90;99.90;;;;;;5110949;28;20054;-81
2022/04/21 04:01:06;;;;;;;16.53;9.53;;;2.00;99.90;;;;;;5111730;28;20051;-81
2022/04/21 04:03:32;;;;;;;16.00;9.77;;;2.00;99.90;;;;;;5111754;28;20096;-81
2022/04/21 04:05:57;;;;;;;15.07;9.57;;;2.00;99.90;;;;;;5111506;28;20034;-81
2022/04/21 04:11:07;;;;;;;15.53;10.43;;;2.00;99.90;;;;;;5091612;28;20065;-81
2022/04/21 04:13:32;;;;;;;19.53;9.80;;;2.00;99.90;;;;;;5092012;28;20031;-81
2022/04/21 04:16:00;;;;;;;16.50;9.73;;;2.10;99.90;;;;;;5079741;28;20025;-81
2022/04/21 04:18:25;;;;;;;19.63;9.80;;;2.10;99.90;;;;;;5073402;28;20453;-81
2022/04/21 04:20:51;;;;;;;13.83;9.40;;;2.20;99.90;;;;;;5091237;28;20099;-81
2022/04/21 04:23:18;;;;;;;20.57;10.10;;;2.20;99.90;;;;;;5086652;28;20084;-81
2022/04/21 04:25:44;;;;;;;21.93;10.73;;;2.20;99.90;;;;;;5092105;28;20020;-81
2022/04/21 04:28:09;;;;;;;18.77;11.07;;;2.20;99.90;;;;;;5087384;28;20075;-81
2022/04/21 04:30:37;;;;;;;19.17;11.57;;;2.30;99.90;;;;;;5089423;28;20028;-81
2022/04/21 04:33:02;;;;;;;19.60;11.23;;;2.30;99.90;;;;;;5085818;28;20422;-81
2022/04/21 04:35:29;;;;;;;23.97;11.87;;;2.40;99.90;;;;;;5071665;28;20059;-83
2022/04/21 04:37:55;;;;;;;25.47;12.57;;;2.40;99.90;;;;;;5080880;28;20023;-83
2022/04/21 04:40:21;;;;;;;20.83;13.13;;;2.50;99.90;;;;;;5082139;28;20020;-83
2022/04/21 04:42:47;;;;;;;22.77;13.37;;;2.50;99.90;;;;;;5071807;28;20070;-83
2022/04/21 04:47:57;;;;;;;18.67;12.63;;;2.60;99.90;;;;;;5088005;28;20477;-83
2022/04/21 04:50:23;;;;;;;23.10;12.20;;;2.70;99.90;;;;;;5074671;28;20532;-83
2022/04/21 04:52:48;;;;;;;22.57;11.83;;;2.80;99.90;;;;;;5088020;28;20384;-83
2022/04/21 04:55:14;;;;;;;23.13;10.93;;;2.90;99.90;;;;;;5065284;28;20068;-83
2022/04/21 04:57:40;;;;;;;16.87;9.57;;;2.90;99.90;;;;;;5085300;28;20022;-83
2022/04/21 05:00:08;;;;;;;16.90;10.00;;;3.00;99.90;;;;;;5084600;28;20479;-67
2022/04/21 05:02:34;;;;;;;18.93;10.27;;;3.00;99.90;;;;;;5074308;28;20147;-68
2022/04/21 05:05:00;;;;;;;21.87;11.60;;;3.10;99.90;;;;;;5089771;28;20429;-83
2022/04/21 05:07:25;;;;;;;20.50;11.33;;;3.20;99.90;;;;;;5085543;28;20035;-83
2022/04/21 05:09:51;;;;;;;19.37;10.90;;;3.30;99.90;;;;;;5088958;28;20103;-84
2022/04/21 05:12:18;;;;;;;16.00;10.13;;;3.40;99.90;;;;;;5071384;28;20095;-84
2022/04/21 05:14:43;;;;;;;19.27;11.20;;;3.50;99.90;;;;;;5091632;28;20480;-83
2022/04/21 05:17:09;;;;;;;19.27;11.17;;;3.50;99.90;;;;;;5084940;28;20028;-84
2022/04/21 05:19:35;;;;;;;15.47;9.67;;;3.60;99.90;;;;;;5074531;28;20032;-82
2022/04/21 05:22:03;;;;;;;16.47;9.47;;;3.70;99.90;;;;;;5076764;28;20432;-84
2022/04/21 05:24:32;;;;;;;16.27;10.03;;;3.90;99.90;;;;;;5092489;28;20115;-82
2022/04/21 05:26:59;;;;;;;17.93;9.50;;;3.90;99.90;;;;;;5073564;28;20039;-82
2022/04/21 05:32:10;;;;;;;16.13;9.77;;;4.00;99.90;;;;;;5088341;28;20039;-84
2022/04/21 05:34:36;;;;;;;19.87;9.20;;;4.10;99.90;;;;;;5088961;28;20024;-84
2022/04/21 05:37:02;;;;;;;16.73;9.83;;;4.10;99.90;;;;;;5092520;28;20012;-84
2022/04/21 05:39:29;;;;;;;20.80;11.53;;;4.20;99.90;;;;;;5093119;28;20126;-84
2022/04/21 05:42:00;;;;;;;18.13;10.70;;;4.30;99.90;;;;;;5093159;28;20119;-82
2022/04/21 05:44:27;;;;;;;16.63;8.80;;;4.40;99.90;;;;;;5089453;28;20031;-82
2022/04/21 05:46:53;;;;;;;14.77;9.33;;;4.60;99.90;;;;;;5093007;28;20024;-82
2022/04/21 05:49:19;;;;;;;12.73;9.00;;;4.70;99.90;;;;;;5095632;28;20135;-69
2022/04/21 05:51:46;;;;;;;15.30;9.50;;;4.80;99.90;;;;;;5092921;28;20077;-80
2022/04/21 05:54:12;;;;;;;17.73;9.20;;;4.90;99.90;;;;;;5112938;28;20534;-80
2022/04/21 05:56:38;;;;;;;14.67;8.93;;;5.20;99.90;;;;;;5113532;28;20019;-81
2022/04/21 05:59:03;;;;;;;10.43;8.73;;;5.30;99.90;;;;;;5103370;28;20020;-81
2022/04/21 06:01:33;;;;;;;13.70;9.53;;;5.30;99.90;;;;;;5095803;28;20024;-81
2022/04/21 06:03:58;;;;;;;13.50;9.93;;;5.30;99.90;;;;;;5111604;28;20024;-81
2022/04/21 06:06:24;;;;;;;15.37;9.43;;;5.30;99.90;;;;;;5095767;28;20028;-81
2022/04/21 06:08:49;;;;;;;14.30;9.63;;;5.40;99.90;;;;;;5095658;28;20039;-81
2022/04/21 06:11:16;;;;;;;17.13;9.60;;;5.50;99.90;;;;;;5095645;28;20099;-77
2022/04/21 06:13:42;;;;;;;16.67;11.07;;;5.60;99.90;;;;;;5095804;28;20019;-77
2022/04/21 06:16:08;;;;;;;16.30;10.73;;;5.80;99.90;;;;;;5095854;28;20024;-77
2022/04/21 06:18:36;;;;;;;15.50;10.30;;;5.90;99.90;;;;;;5095577;28;20032;-76
2022/04/21 06:21:02;;;;;;;17.80;10.17;;;6.00;99.90;;;;;;5095307;28;20047;-77
2022/04/21 06:23:28;;;;;;;18.77;10.97;;;6.00;99.90;;;;;;5077241;28;20024;-77
2022/04/21 06:25:58;;;;;;;18.80;11.20;;;6.10;99.90;;;;;;5095302;28;20107;-77
2022/04/21 06:28:28;;;;;;;17.43;10.00;;;6.20;99.90;;;;;;5095212;28;20039;-76
2022/04/21 06:30:53;;;;;;;16.13;9.67;;;6.30;99.90;;;;;;5074951;28;20029;-77
2022/04/21 06:33:19;;;;;;;17.07;9.37;;;6.60;99.90;;;;;;5091936;28;20030;-76
2022/04/21 06:35:45;;;;;;;18.30;9.97;;;6.60;99.90;;;;;;5094741;28;20028;-77
2022/04/21 06:38:12;;;;;;;14.43;10.33;;;6.60;99.90;;;;;;5074708;28;20035;-76
2022/04/21 06:40:37;;;;;;;16.60;9.93;;;6.60;99.90;;;;;;5094478;28;20032;-76
2022/04/21 06:48:01;;;;;;;12.97;9.70;;;6.60;99.90;;;;;;5074883;28;20384;-77
2022/04/21 06:48:37;;;;;;;14.67;10.13;;;7.20;99.90;;;;;;5083283;28;20051;-76
2022/04/21 06:51:04;;;;;;;17.50;9.77;;;7.30;99.90;;;;;;5094689;28;20060;-77
2022/04/21 06:53:31;;;;;;;15.57;9.67;;;7.30;99.90;;;;;;5094724;28;20012;-77
2022/04/21 06:55:57;;;;;;;15.13;10.57;;;7.60;99.90;;;;;;5094129;28;20422;-77
2022/04/21 06:58:23;;;;;;;16.33;9.23;;;7.50;99.90;;;;;;5076029;28;20024;-78
2022/04/21 07:00:48;;;;;;;14.03;9.83;;;7.60;99.90;;;;;;5094301;28;20115;-77
2022/04/21 07:03:14;;;;;;;17.13;11.77;;;7.60;99.90;;;;;;5094132;28;20024;-77
2022/04/21 07:05:39;;;;;;;15.53;10.53;;;7.80;99.90;;;;;;5093933;28;20035;-77
2022/04/21 07:08:07;;;;;;;19.77;10.60;;;7.90;99.90;;;;;;5093807;28;20100;-77
2022/04/21 07:10:33;;;;;;;17.70;9.80;;;7.80;99.90;;;;;;5094021;28;20028;-78
2022/04/21 07:12:59;;;;;;;15.90;10.70;;;7.80;99.90;;;;;;5094085;28;20047;-77
2022/04/21 07:15:25;;;;;;;15.10;9.93;;;8.10;99.90;;;;;;5093978;28;20376;-77
2022/04/21 07:17:50;;;;;;;12.47;9.97;;;8.30;99.90;;;;;;5093656;28;20108;-77
2022/04/21 07:20:16;;;;;;;14.97;10.60;;;8.20;99.90;;;;;;5092950;28;20487;-77
2022/04/21 07:22:41;;;;;;;15.13;10.00;;;8.20;99.90;;;;;;5093092;28;20512;-78
2022/04/21 07:25:09;;;;;;;13.60;9.23;;;8.20;99.90;;;;;;5093420;28;20024;-78
2022/04/21 07:27:36;;;;;;;12.43;9.47;;;8.20;99.90;;;;;;5092477;28;20016;-78
2022/04/21 07:30:02;;;;;;;13.37;9.37;;;8.20;99.90;;;;;;5092646;28;20515;-77
2022/04/21 07:32:28;;;;;;;12.77;9.10;;;8.60;99.90;;;;;;5090808;28;20396;-77
2022/04/21 07:34:54;;;;;;;14.13;10.63;;;8.70;99.90;;;;;;5093314;28;20021;-76
2022/04/21 07:37:20;;;;;;;13.70;9.33;;;8.60;99.90;;;;;;5093058;28;20024;-77
2022/04/21 07:39:45;;;;;;;10.87;9.00;;;8.80;99.90;;;;;;5073606;28;20381;-76
2022/04/21 07:42:11;;;;;;;13.00;9.27;;;8.90;99.90;;;;;;5092896;28;20028;-76
2022/04/21 07:44:37;;;;;;;12.73;9.20;;;8.90;99.90;;;;;;5092254;28;20020;-77
2022/04/21 07:47:05;;;;;;;19.07;8.37;;;9.20;99.90;;;;;;5073415;28;20036;-76
2022/04/21 07:49:46;;;;;;;12.23;8.97;;;9.30;99.90;;;;;;5073082;28;20028;-76
2022/04/21 07:55:05;;;;;;;15.77;9.70;;;9.40;99.90;;;;;;5093090;28;20023;-76
2022/04/21 07:57:30;;;;;;;12.97;9.43;;;9.60;99.90;;;;;;5092102;28;20024;-76
2022/04/21 07:59:58;;;;;;;14.40;9.20;;;9.60;99.90;;;;;;5074471;28;20418;-76
2022/04/21 08:02:24;;;;;;;12.30;9.57;;;9.70;99.90;;;;;;5092432;28;20039;-76
2022/04/21 08:04:50;;;;;;;12.40;10.07;;;9.70;99.90;;;;;;5092104;28;20031;-76
2022/04/21 08:07:16;;;;;;;13.97;9.40;;;9.60;99.90;;;;;;5091414;28;20036;-76
2022/04/21 08:09:42;;;;;;;12.57;9.20;;;9.80;99.90;;;;;;5092512;28;20031;-77
2022/04/21 08:12:08;;;;;;;15.23;9.53;;;10.00;99.90;;;;;;5092189;28;20417;-76
2022/04/21 08:14:35;;;;;;;14.70;10.13;;;10.00;99.90;;;;;;5074053;28;20020;-77
2022/04/21 08:17:00;;;;;;;13.53;9.07;;;10.00;99.90;;;;;;5092842;28;20024;-76
2022/04/21 08:19:26;;;;;;;11.30;8.73;;;10.10;99.90;;;;;;5092520;28;20077;-76
2022/04/21 08:21:51;;;;;;;13.57;9.10;;;10.10;99.90;;;;;;5092484;28;20055;-76
2022/04/21 08:32:43;;;;;;;15.30;9.23;;;10.40;99.90;;;;;;5090078;28;20077;-77
2022/04/21 08:35:10;;;;;;;14.70;8.50;;;10.40;99.90;;;;;;5074084;28;20162;-77
2022/04/21 08:37:36;;;;;;;18.30;9.00;;;10.50;99.90;;;;;;5074436;28;20011;-77
2022/04/21 08:40:03;;;;;;;14.63;9.47;;;10.60;99.90;;;;;;5091711;28;20317;-77
2022/04/21 08:42:30;;;;;;;12.93;9.53;;;10.60;99.90;;;;;;5092896;28;20051;-77
2022/04/21 08:44:58;;;;;;;14.57;10.17;;;10.80;99.90;;;;;;5095945;28;20024;-77
2022/04/21 08:47:28;;;;;;;12.63;9.20;;;10.80;99.90;;;;;;5095571;28;20124;-77
2022/04/21 08:49:59;;;;;;;14.00;8.70;;;10.80;99.90;;;;;;5095644;28;20024;-76
2022/04/21 08:52:25;;;;;;;15.10;9.03;;;11.20;99.90;;;;;;5095908;28;20028;-77
2022/04/21 08:54:51;;;;;;;13.13;8.60;;;11.30;99.90;;;;;;5095734;28;20034;-77
2022/04/21 08:57:16;;;;;;;18.73;9.97;;;11.40;99.90;;;;;;5095144;28;20352;-77
2022/04/21 08:59:42;;;;;;;10.97;8.80;;;11.20;99.90;;;;;;5093601;28;20047;-77
2022/04/21 09:02:08;;;;;;;16.50;8.70;;;11.50;99.90;;;;;;5077468;28;20028;-77
2022/04/21 09:04:34;;;;;;;13.47;8.80;;;11.60;99.90;;;;;;5095362;28;20031;-77
2022/04/21 09:07:23;;;;;;;12.43;9.23;;;11.70;99.90;;;;;;5094855;28;20024;-77
2022/04/21 09:10:05;;;;;;;12.83;9.27;;;12.10;99.90;;;;;;5094556;28;20388;-77
2022/04/21 09:12:32;;;;;;;11.27;8.00;;;12.30;99.90;;;;;;5094626;28;20047;-77
2022/04/21 09:15:03;;;;;;;14.85;8.50;;;13.00;99.90;;;;;;5091419;28;20475;-77
2022/04/21 09:17:29;;;;;;;11.38;8.02;;;12.90;99.90;;;;;;5076058;28;20027;-76
2022/04/21 09:19:59;;;;;;;12.18;9.10;;;13.30;99.90;;;;;;5058628;28;20028;-77
2022/04/21 09:22:25;;;;;;;12.30;8.30;;;14.00;99.90;;;;;;5058484;28;20107;-77
2022/04/21 09:24:53;;;;;;;12.90;8.30;;;14.40;99.90;;;;;;5076404;28;20111;-77
2022/04/21 09:27:20;;;;;;;11.23;7.90;;;14.10;99.90;;;;;;5076479;28;20024;-77
2022/04/21 09:29:46;;;;;;;11.82;8.57;;;14.70;99.90;;;;;;5075908;28;20049;-77
2022/04/21 09:32:17;;;;;;;13.68;8.35;;;14.80;99.90;;;;;;5076167;28;20039;-77
2022/04/21 09:34:48;;;;;;;14.73;8.02;;;15.10;99.50;;;;;;5076220;28;20017;-77
2022/04/21 09:37:18;;;;;;;10.13;7.55;;;15.10;98.10;;;;;;5102011;28;20023;-78
2022/04/21 09:39:50;;;;;;;10.27;7.53;;;15.30;96.50;;;;;;5116972;28;20099;-77
2022/04/21 09:42:28;;;;;;;9.43;8.05;;;15.20;97.10;;;;;;5116735;28;20024;-77
2022/04/21 09:48:00;;;;;;;10.40;7.65;;;15.30;97.10;;;;;;5087546;28;20108;-77
2022/04/21 09:50:26;;;;;;;12.60;7.45;;;15.90;93.00;;;;;;5096216;28;20048;-77
2022/04/21 09:52:53;;;;;;;13.50;7.82;;;15.90;92.30;;;;;;5095805;28;20067;-77
2022/04/21 09:55:26;;;;;;;9.63;7.20;;;15.90;92.40;;;;;;5096358;28;20055;-77
2022/04/21 09:58:12;;;;;;;9.50;6.72;;;16.30;91.40;;;;;;5096349;28;20020;-77
2022/04/21 10:00:39;;;;;;;8.35;6.22;;;16.40;87.80;;;;;;5096554;28;20044;-77
2022/04/21 10:03:06;;;;;;;11.18;7.10;;;16.70;86.10;;;;;;5078429;28;20423;-77
2022/04/21 10:05:33;;;;;;;10.25;7.57;;;16.80;82.00;;;;;;5096037;28;20020;-77
2022/04/21 10:08:04;;;;;;;11.23;6.40;;;16.80;82.70;;;;;;5096126;28;20026;-77
2022/04/21 10:10:32;;;;;;;9.90;7.22;;;16.90;81.90;;;;;;5111480;28;20039;-77
2022/04/21 10:13:00;;;;;;;8.50;6.60;;;17.00;85.70;;;;;;5095881;28;20465;-77
2022/04/21 10:15:27;;;;;;;10.48;6.75;;;16.80;85.50;;;;;;5095564;28;20020;-78
2022/04/21 10:17:53;;;;;;;8.48;6.03;;;16.80;77.90;;;;;;5095436;28;20095;-77
2022/04/21 10:20:26;;;;;;;8.93;6.80;;;16.60;79.00;;;;;;5095566;28;20036;-77
2022/04/21 10:22:53;;;;;;;8.02;6.80;;;17.20;76.20;;;;;;5077128;28;20111;-78
2022/04/21 10:25:19;;;;;;;8.10;6.20;;;17.20;78.90;;;;;;5095464;28;20350;-77
2022/04/21 10:27:47;;;;;;;9.52;6.43;;;17.40;73.90;;;;;;5092674;28;20098;-80
2022/04/21 10:30:21;;;;;;;6.95;5.80;;;17.60;73.60;;;;;;5094798;28;20043;-80
2022/04/21 10:32:52;;;;;;;9.55;6.70;;;17.70;70.70;;;;;;5112165;28;20122;-81
2022/04/21 10:35:17;;;;;;;8.20;6.00;;;17.70;72.50;;;;;;5092984;28;20024;-80
2022/04/21 10:37:43;;;;;;;8.80;6.40;;;17.60;69.80;;;;;;5074348;28;20040;-81
2022/04/21 10:40:10;;;;;;;8.77;6.57;;;17.40;71.20;;;;;;5093064;28;20031;-81
2022/04/21 10:42:55;;;;;;;9.35;6.07;;;16.90;73.90;;;;;;5081178;28;20035;-80
2022/04/21 10:45:31;;;;;;;7.80;5.95;;;17.50;74.90;;;;;;5092343;28;20051;-80
2022/04/21 10:48:02;;;;;;;9.75;6.60;;;17.80;70.50;;;;;;5091920;28;20028;-80
2022/04/21 10:50:31;;;;;;;8.10;6.22;;;17.70;71.40;;;;;;5091915;28;20019;-81
2022/04/21 10:58:34;;;;;;;10.38;6.80;;;17.70;72.60;;;;;;5086810;28;20035;-80
2022/04/21 11:01:09;;;;;;;;;;;17.90;70.10;;;;;;5111886;28;20028;-76
2022/04/21 11:03:38;;;;;;;14.07;6.72;;;17.80;73.00;;;;;;5092843;28;20372;-70
2022/04/21 11:06:14;;;;;;;7.35;6.65;;;17.90;69.90;;;;;;5099125;28;20036;-69
2022/04/21 11:08:40;;;;;;;9.52;7.07;;;18.20;72.40;;;;;;5091869;28;20020;-70
2022/04/21 11:11:06;;;;;;;9.20;7.40;;;18.30;73.10;;;;;;5091391;28;20042;-70
2022/04/21 11:13:49;;;;;;;8.60;7.35;;;18.30;71.10;;;;;;5085413;28;20024;-69
2022/04/21 11:16:45;;;;;;;8.18;7.05;;;18.20;73.90;;;;;;5088866;28;20023;-69
2022/04/21 11:19:29;;;;;;;9.45;6.90;;;18.50;69.90;;;;;;5088382;28;20530;-69
2022/04/21 11:22:14;;;;;;;9.25;6.75;;;18.40;71.50;;;;;;5088577;28;20031;-69
2022/04/21 11:24:55;;;;;;;10.40;5.75;;;18.40;71.60;;;;;;5087967;28;20120;-69
2022/04/21 11:27:21;;;;;;;10.02;6.00;;;18.40;72.70;;;;;;5086868;28;20098;-70
2022/04/21 11:29:47;;;;;;;10.32;5.97;;;18.40;69.70;;;;;;5088117;28;20048;-70
2022/04/21 11:32:16;;;;;;;11.75;6.38;;;18.80;70.60;;;;;;5089430;28;20143;-68
2022/04/21 11:34:56;;;;;;;8.13;5.95;;;18.60;71.20;;;;;;5098448;28;20036;-68
2022/04/21 11:37:21;;;;;;;12.50;8.00;;;18.90;67.00;;;;;;5092192;28;20495;-68
2022/04/21 11:39:47;;;;;;;11.15;6.78;;;18.80;68.00;;;;;;5090348;28;20016;-68
2022/04/21 11:42:27;;;;;;;6.45;5.60;;;19.00;67.10;;;;;;5096449;28;20098;-70
2022/04/21 11:44:53;;;;;;;9.52;6.50;;;19.10;67.10;;;;;;5112220;28;20062;-68
2022/04/21 11:47:19;;;;;;;6.75;5.75;;;19.40;65.80;;;;;;5104772;28;20549;-69
2022/04/21 11:50:00;;;;;;;7.40;6.10;;;19.30;65.30;;;;;;5091412;28;20071;-68
2022/04/21 11:52:27;;;;;;;8.10;6.05;;;19.30;66.00;;;;;;5092371;28;20058;-69
2022/04/21 11:55:00;;;;;;;9.43;6.18;;;19.60;65.80;;;;;;5074299;28;20044;-68
2022/04/21 11:57:41;;;;;;;9.25;6.15;;;19.60;65.00;;;;;;5090150;28;20020;-68
2022/04/21 12:00:08;;;;;;;10.80;6.47;;;19.40;67.30;;;;;;5090031;28;20027;-67
2022/04/21 12:08:06;;;;;;;7.78;6.43;;;19.20;66.90;;;;;;5100929;28;20074;-66
2022/04/21 12:10:31;;;;;;;8.40;5.90;;;19.20;65.10;;;;;;5097638;28;20028;-66
2022/04/21 12:12:57;;;;;;;8.27;6.22;;;19.00;64.70;;;;;;5090118;28;20035;-68
2022/04/21 12:15:28;;;;;;;8.02;5.68;;;18.80;67.90;;;;;;5089418;28;20362;-68
2022/04/21 12:18:01;;;;;;;9.32;5.40;;;18.90;66.50;;;;;;5089600;28;20384;-67
2022/04/21 12:20:27;;;;;;;8.77;5.93;;;19.20;65.80;;;;;;5089053;28;20025;-67
2022/04/21 12:22:54;;;;;;;9.05;6.28;;;19.60;62.30;;;;;;5089276;28;20043;-68
2022/04/21 12:25:31;;;;;;;8.55;6.22;;;19.50;62.50;;;;;;5087839;28;20032;-67
2022/04/21 12:28:07;;;;;;;7.10;5.75;;;19.60;63.80;;;;;;5085169;28;20058;-67
2022/04/21 12:30:38;;;;;;;6.78;6.07;;;19.50;62.80;;;;;;5088442;28;20027;-68
2022/04/21 12:33:04;;;;;;;8.80;6.55;;;19.30;63.10;;;;;;5088283;28;20035;-67
2022/04/21 12:35:51;;;;;;;12.23;7.32;;;19.50;63.00;;;;;;5088768;28;20017;-67
2022/04/21 12:41:02;;;;;;;7.00;6.10;;;19.60;65.50;;;;;;5104509;28;20038;-67
2022/04/21 12:43:29;;;;;;;7.57;5.85;;;19.50;64.10;;;;;;5109720;28;20032;-67
2022/04/21 12:45:58;;;;;;;7.45;6.05;;;19.70;64.60;;;;;;5109462;28;20110;-68
2022/04/21 12:48:28;;;;;;;39.67;6.47;;;19.60;63.90;;;;;;5093383;28;20028;-68
2022/04/21 12:50:55;;;;;;;7.43;6.38;;;19.50;63.40;;;;;;5088294;28;20024;-68
2022/04/21 12:53:30;;;;;;;8.68;5.93;;;19.40;62.80;;;;;;5089062;28;20032;-68
2022/04/21 12:56:07;;;;;;;6.50;5.75;;;19.50;63.40;;;;;;5101872;28;20028;-67
2022/04/21 12:58:32;;;;;;;6.75;5.70;;;19.10;63.10;;;;;;5096075;28;20123;-68
2022/04/21 13:01:01;;;;;;;8.88;6.03;;;18.80;64.80;;;;;;5069845;28;20115;-68
2022/04/21 13:03:28;;;;;;;9.85;5.85;;;19.30;66.00;;;;;;5082247;28;20058;-68
2022/04/21 13:05:55;;;;;;;7.70;6.20;;;19.70;63.60;;;;;;5107216;28;20536;-67
2022/04/21 13:08:24;;;;;;;8.68;6.18;;;19.20;62.90;;;;;;5107836;28;20047;-67
2022/04/21 13:10:50;;;;;;;8.00;5.88;;;19.30;64.90;;;;;;5108579;28;20024;-67
2022/04/21 13:13:16;;;;;;;9.65;6.05;;;19.40;61.80;;;;;;5096248;28;20313;-67
2022/04/21 13:15:41;;;;;;;8.52;5.95;;;19.30;62.90;;;;;;5094014;28;20081;-66
2022/04/21 13:18:07;;;;;;;10.32;6.28;;;19.00;64.50;;;;;;5097978;28;20513;-67
2022/04/21 13:23:18;;;;;;;7.63;5.80;;;19.00;63.70;;;;;;5072261;28;20055;-68
2022/04/21 13:25:43;;;;;;;11.38;5.53;;;19.00;65.30;;;;;;5072715;28;20056;-68
2022/04/21 13:28:10;;;;;;;10.30;5.60;;;19.10;64.60;;;;;;5073088;28;20129;-67
2022/04/21 13:30:36;;;;;;;8.13;5.75;;;19.00;63.50;;;;;;5076161;28;20024;-68
2022/04/21 13:35:45;;;;;;;9.18;6.07;;;18.90;65.70;;;;;;5076113;28;20027;-66
2022/04/21 13:38:11;;;;;;;8.10;5.93;;;19.00;64.50;;;;;;5076196;28;20099;-67
2022/04/21 13:40:36;;;;;;;8.95;6.13;;;18.90;64.10;;;;;;5076040;28;20017;-68
2022/04/21 13:43:02;;;;;;;7.28;6.07;;;18.90;65.20;;;;;;5115528;28;20394;-68
2022/04/21 13:45:28;;;;;;;6.88;5.75;;;19.00;64.80;;;;;;5101704;28;20845;-65